sensor_id;sensor_type;location;lat;lon;timestamp;P1;durP1;ratioP1;P2;durP2;ratioP2
51840;SDS011;37888;53.246;6.658;2023-07-22T00:25:18;3.25;;;1.80;;
51840;SDS011;37888;53.246;6.658;2023-07-22T00:28:02;2.95;;;1.85;;
51840;SDS011;37888;53.246;6.658;2023-07-22T00:30:29;3.95;;;1.92;;
51840;SDS011;37888;53.246;6.658;2023-07-22T00:33:03;3.95;;;1.90;;
51840;SDS011;37888;53.246;6.658;2023-07-22T00:35:31;3.50;;;1.80;;
51840;SDS011;37888;53.246;6.658;2023-07-22T00:38:15;3.35;;;1.60;;
51840;SDS011;37888;53.246;6.658;2023-07-22T00:40:53;3.00;;;1.70;;
51840;SDS011;37888;53.246;6.658;2023-07-22T00:46:35;3.78;;;1.58;;
51840;SDS011;37888;53.246;6.658;2023-07-22T00:49:07;3.72;;;1.75;;
51840;SDS011;37888;53.246;6.658;2023-07-22T00:51:38;3.55;;;1.70;;
51840;SDS011;37888;53.246;6.658;2023-07-22T00:54:12;6.13;;;2.08;;
51840;SDS011;37888;53.246;6.658;2023-07-22T00:56:40;2.90;;;1.73;;
51840;SDS011;37888;53.246;6.658;2023-07-22T00:59:08;3.58;;;1.60;;
51840;SDS011;37888;53.246;6.658;2023-07-22T01:01:40;4.63;;;1.80;;
51840;SDS011;37888;53.246;6.658;2023-07-22T01:04:13;3.88;;;1.98;;
51840;SDS011;37888;53.246;6.658;2023-07-22T01:06:41;3.72;;;1.80;;
51840;SDS011;37888;53.246;6.658;2023-07-22T01:09:16;2.67;;;1.58;;
51840;SDS011;37888;53.246;6.658;2023-07-22T01:11:53;4.40;;;1.90;;
51840;SDS011;37888;53.246;6.658;2023-07-22T01:17:10;5.75;;;1.85;;
51840;SDS011;37888;53.246;6.658;2023-07-22T01:19:38;2.72;;;1.70;;
51840;SDS011;37888;53.246;6.658;2023-07-22T01:22:11;4.57;;;1.67;;
51840;SDS011;37888;53.246;6.658;2023-07-22T01:24:41;2.95;;;1.77;;
51840;SDS011;37888;53.246;6.658;2023-07-22T01:27:23;4.90;;;1.80;;
51840;SDS011;37888;53.246;6.658;2023-07-22T01:29:55;3.72;;;1.70;;
51840;SDS011;37888;53.246;6.658;2023-07-22T01:32:21;3.17;;;1.73;;
51840;SDS011;37888;53.246;6.658;2023-07-22T01:34:58;3.10;;;1.67;;
51840;SDS011;37888;53.246;6.658;2023-07-22T01:37:30;4.28;;;1.70;;
51840;SDS011;37888;53.246;6.658;2023-07-22T01:39:59;3.63;;;2.05;;
51840;SDS011;37888;53.246;6.658;2023-07-22T01:42:59;4.43;;;2.50;;
51840;SDS011;37888;53.246;6.658;2023-07-22T01:45:37;4.95;;;2.22;;
51840;SDS011;37888;53.246;6.658;2023-07-22T01:48:05;3.95;;;2.15;;
51840;SDS011;37888;53.246;6.658;2023-07-22T01:50:41;4.40;;;2.22;;
51840;SDS011;37888;53.246;6.658;2023-07-22T01:53:10;4.60;;;2.22;;
51840;SDS011;37888;53.246;6.658;2023-07-22T01:55:38;4.95;;;2.33;;
51840;SDS011;37888;53.246;6.658;2023-07-22T01:58:07;4.55;;;2.30;;
51840;SDS011;37888;53.246;6.658;2023-07-22T02:00:33;4.32;;;2.03;;
51840;SDS011;37888;53.246;6.658;2023-07-22T02:03:16;4.40;;;2.60;;
51840;SDS011;37888;53.246;6.658;2023-07-22T02:06:06;4.05;;;1.92;;
51840;SDS011;37888;53.246;6.658;2023-07-22T02:08:43;3.95;;;2.28;;
51840;SDS011;37888;53.246;6.658;2023-07-22T02:11:20;3.30;;;2.00;;
51840;SDS011;37888;53.246;6.658;2023-07-22T02:13:46;4.22;;;1.88;;
51840;SDS011;37888;53.246;6.658;2023-07-22T02:16:15;4.82;;;2.28;;
51840;SDS011;37888;53.246;6.658;2023-07-22T02:18:59;4.07;;;1.90;;
51840;SDS011;37888;53.246;6.658;2023-07-22T02:21:31;3.63;;;2.15;;
51840;SDS011;37888;53.246;6.658;2023-07-22T02:23:58;5.32;;;2.17;;
51840;SDS011;37888;53.246;6.658;2023-07-22T02:26:24;5.00;;;2.25;;
51840;SDS011;37888;53.246;6.658;2023-07-22T02:29:11;3.60;;;1.95;;
51840;SDS011;37888;53.246;6.658;2023-07-22T02:31:45;4.47;;;2.03;;
51840;SDS011;37888;53.246;6.658;2023-07-22T02:34:13;4.50;;;2.20;;
51840;SDS011;37888;53.246;6.658;2023-07-22T02:36:52;3.22;;;2.10;;
51840;SDS011;37888;53.246;6.658;2023-07-22T02:39:39;4.00;;;2.10;;
51840;SDS011;37888;53.246;6.658;2023-07-22T02:42:13;4.45;;;1.80;;
51840;SDS011;37888;53.246;6.658;2023-07-22T02:44:39;5.20;;;2.08;;
51840;SDS011;37888;53.246;6.658;2023-07-22T02:47:19;4.55;;;2.08;;
51840;SDS011;37888;53.246;6.658;2023-07-22T02:49:53;3.35;;;1.65;;
51840;SDS011;37888;53.246;6.658;2023-07-22T02:52:19;5.43;;;2.10;;
51840;SDS011;37888;53.246;6.658;2023-07-22T02:55:10;2.97;;;1.92;;
51840;SDS011;37888;53.246;6.658;2023-07-22T02:57:45;4.28;;;2.00;;
51840;SDS011;37888;53.246;6.658;2023-07-22T03:03:04;4.85;;;2.08;;
51840;SDS011;37888;53.246;6.658;2023-07-22T03:05:32;2.65;;;1.65;;
51840;SDS011;37888;53.246;6.658;2023-07-22T03:08:13;4.63;;;2.38;;
51840;SDS011;37888;53.246;6.658;2023-07-22T03:11:16;3.70;;;2.20;;
51840;SDS011;37888;53.246;6.658;2023-07-22T03:13:50;5.15;;;2.03;;
51840;SDS011;37888;53.246;6.658;2023-07-22T03:16:27;4.72;;;1.90;;
51840;SDS011;37888;53.246;6.658;2023-07-22T03:19:13;3.30;;;2.00;;
51840;SDS011;37888;53.246;6.658;2023-07-22T03:21:44;4.45;;;2.00;;
51840;SDS011;37888;53.246;6.658;2023-07-22T03:24:10;3.47;;;1.92;;
51840;SDS011;37888;53.246;6.658;2023-07-22T03:26:36;5.38;;;1.92;;
51840;SDS011;37888;53.246;6.658;2023-07-22T03:29:07;4.47;;;2.00;;
51840;SDS011;37888;53.246;6.658;2023-07-22T03:31:44;4.70;;;2.00;;
51840;SDS011;37888;53.246;6.658;2023-07-22T03:34:10;3.58;;;1.90;;
51840;SDS011;37888;53.246;6.658;2023-07-22T03:36:47;4.15;;;1.92;;
51840;SDS011;37888;53.246;6.658;2023-07-22T03:39:36;3.75;;;1.95;;
51840;SDS011;37888;53.246;6.658;2023-07-22T03:42:05;3.53;;;1.75;;
51840;SDS011;37888;53.246;6.658;2023-07-22T03:44:31;3.15;;;1.70;;
51840;SDS011;37888;53.246;6.658;2023-07-22T03:46:57;3.00;;;2.03;;
51840;SDS011;37888;53.246;6.658;2023-07-22T03:51:53;3.28;;;1.88;;
51840;SDS011;37888;53.246;6.658;2023-07-22T03:54:19;3.88;;;2.20;;
51840;SDS011;37888;53.246;6.658;2023-07-22T03:56:50;3.88;;;2.53;;
51840;SDS011;37888;53.246;6.658;2023-07-22T03:59:21;4.75;;;2.40;;
51840;SDS011;37888;53.246;6.658;2023-07-22T04:01:53;4.07;;;2.58;;
51840;SDS011;37888;53.246;6.658;2023-07-22T04:04:43;5.80;;;2.40;;
51840;SDS011;37888;53.246;6.658;2023-07-22T04:07:09;6.57;;;2.72;;
51840;SDS011;37888;53.246;6.658;2023-07-22T04:09:55;4.72;;;2.35;;
51840;SDS011;37888;53.246;6.658;2023-07-22T04:12:26;6.15;;;2.42;;
51840;SDS011;37888;53.246;6.658;2023-07-22T04:15:01;3.75;;;2.42;;
51840;SDS011;37888;53.246;6.658;2023-07-22T04:17:57;7.03;;;2.40;;
51840;SDS011;37888;53.246;6.658;2023-07-22T04:20:40;4.70;;;2.60;;
51840;SDS011;37888;53.246;6.658;2023-07-22T04:23:28;4.72;;;2.80;;
51840;SDS011;37888;53.246;6.658;2023-07-22T04:26:03;4.40;;;2.53;;
51840;SDS011;37888;53.246;6.658;2023-07-22T04:28:59;4.90;;;2.72;;
51840;SDS011;37888;53.246;6.658;2023-07-22T04:31:56;6.88;;;2.50;;
51840;SDS011;37888;53.246;6.658;2023-07-22T04:34:38;3.60;;;2.50;;
51840;SDS011;37888;53.246;6.658;2023-07-22T04:37:27;3.80;;;2.00;;
51840;SDS011;37888;53.246;6.658;2023-07-22T04:40:03;4.32;;;2.38;;
51840;SDS011;37888;53.246;6.658;2023-07-22T04:42:47;5.25;;;2.17;;
51840;SDS011;37888;53.246;6.658;2023-07-22T04:45:39;4.00;;;1.95;;
51840;SDS011;37888;53.246;6.658;2023-07-22T04:50:59;4.55;;;2.55;;
51840;SDS011;37888;53.246;6.658;2023-07-22T04:53:27;4.95;;;2.30;;
51840;SDS011;37888;53.246;6.658;2023-07-22T04:55:56;3.55;;;2.05;;
51840;SDS011;37888;53.246;6.658;2023-07-22T04:58:22;3.20;;;2.03;;
51840;SDS011;37888;53.246;6.658;2023-07-22T05:01:00;3.45;;;2.20;;
51840;SDS011;37888;53.246;6.658;2023-07-22T05:03:26;4.15;;;2.05;;
51840;SDS011;37888;53.246;6.658;2023-07-22T05:06:00;2.97;;;1.73;;
51840;SDS011;37888;53.246;6.658;2023-07-22T05:08:43;2.90;;;2.10;;
51840;SDS011;37888;53.246;6.658;2023-07-22T05:11:09;3.85;;;2.53;;
51840;SDS011;37888;53.246;6.658;2023-07-22T05:13:52;4.57;;;2.28;;
51840;SDS011;37888;53.246;6.658;2023-07-22T05:16:49;4.28;;;2.55;;
51840;SDS011;37888;53.246;6.658;2023-07-22T05:19:15;5.88;;;2.60;;
51840;SDS011;37888;53.246;6.658;2023-07-22T05:21:47;3.85;;;2.60;;
51840;SDS011;37888;53.246;6.658;2023-07-22T05:24:19;3.42;;;2.45;;
51840;SDS011;37888;53.246;6.658;2023-07-22T05:26:47;3.85;;;2.55;;
51840;SDS011;37888;53.246;6.658;2023-07-22T05:29:33;3.83;;;2.75;;
51840;SDS011;37888;53.246;6.658;2023-07-22T05:32:02;3.40;;;2.28;;
51840;SDS011;37888;53.246;6.658;2023-07-22T05:34:28;4.22;;;2.72;;
51840;SDS011;37888;53.246;6.658;2023-07-22T05:36:54;3.85;;;2.85;;
51840;SDS011;37888;53.246;6.658;2023-07-22T05:39:34;4.03;;;2.38;;
51840;SDS011;37888;53.246;6.658;2023-07-22T05:42:07;4.65;;;3.28;;
51840;SDS011;37888;53.246;6.658;2023-07-22T05:44:45;3.85;;;2.65;;
51840;SDS011;37888;53.246;6.658;2023-07-22T05:53:59;4.30;;;2.78;;
51840;SDS011;37888;53.246;6.658;2023-07-22T05:57:17;3.60;;;2.67;;
51840;SDS011;37888;53.246;6.658;2023-07-22T06:03:49;4.72;;;3.00;;
51840;SDS011;37888;53.246;6.658;2023-07-22T06:06:51;4.10;;;3.10;;
51840;SDS011;37888;53.246;6.658;2023-07-22T06:10:05;3.42;;;2.55;;
51840;SDS011;37888;53.246;6.658;2023-07-22T06:12:52;3.83;;;2.90;;
51840;SDS011;37888;53.246;6.658;2023-07-22T06:15:33;5.47;;;2.70;;
51840;SDS011;37888;53.246;6.658;2023-07-22T06:18:08;4.30;;;3.30;;
51840;SDS011;37888;53.246;6.658;2023-07-22T07:12:38;4.45;;;3.60;;
51840;SDS011;37888;53.246;6.658;2023-07-22T07:15:07;4.07;;;3.53;;
51840;SDS011;37888;53.246;6.658;2023-07-22T07:17:40;4.28;;;3.47;;
51840;SDS011;37888;53.246;6.658;2023-07-22T07:20:06;4.85;;;3.50;;
51840;SDS011;37888;53.246;6.658;2023-07-22T07:22:32;4.50;;;3.92;;
51840;SDS011;37888;53.246;6.658;2023-07-22T07:24:58;3.47;;;2.95;;
51840;SDS011;37888;53.246;6.658;2023-07-22T07:27:36;3.53;;;3.05;;
51840;SDS011;37888;53.246;6.658;2023-07-22T07:30:08;4.75;;;3.50;;
51840;SDS011;37888;53.246;6.658;2023-07-22T07:32:35;6.05;;;3.90;;
51840;SDS011;37888;53.246;6.658;2023-07-22T07:35:06;4.05;;;3.60;;
51840;SDS011;37888;53.246;6.658;2023-07-22T07:37:34;3.88;;;2.95;;
51840;SDS011;37888;53.246;6.658;2023-07-22T07:40:00;4.28;;;3.72;;
51840;SDS011;37888;53.246;6.658;2023-07-22T07:42:27;4.18;;;3.33;;
51840;SDS011;37888;53.246;6.658;2023-07-22T07:45:02;4.25;;;3.35;;
51840;SDS011;37888;53.246;6.658;2023-07-22T07:47:34;5.65;;;3.78;;
51840;SDS011;37888;53.246;6.658;2023-07-22T07:50:01;4.85;;;3.75;;
51840;SDS011;37888;53.246;6.658;2023-07-22T07:52:28;6.57;;;3.33;;
51840;SDS011;37888;53.246;6.658;2023-07-22T07:55:00;4.78;;;3.92;;
51840;SDS011;37888;53.246;6.658;2023-07-22T07:58:03;6.47;;;3.90;;
51840;SDS011;37888;53.246;6.658;2023-07-22T08:00:34;6.30;;;3.83;;
51840;SDS011;37888;53.246;6.658;2023-07-22T08:03:06;6.20;;;4.25;;
51840;SDS011;37888;53.246;6.658;2023-07-22T08:05:47;5.95;;;4.05;;
51840;SDS011;37888;53.246;6.658;2023-07-22T08:08:13;5.80;;;4.60;;
51840;SDS011;37888;53.246;6.658;2023-07-22T08:10:45;4.90;;;4.07;;
51840;SDS011;37888;53.246;6.658;2023-07-22T08:13:11;5.65;;;4.25;;
51840;SDS011;37888;53.246;6.658;2023-07-22T08:15:39;6.10;;;3.72;;
51840;SDS011;37888;53.246;6.658;2023-07-22T08:20:38;4.88;;;3.92;;
51840;SDS011;37888;53.246;6.658;2023-07-22T08:23:11;4.03;;;3.55;;
51840;SDS011;37888;53.246;6.658;2023-07-22T08:25:49;4.75;;;3.20;;
51840;SDS011;37888;53.246;6.658;2023-07-22T08:28:16;3.80;;;3.10;;
51840;SDS011;37888;53.246;6.658;2023-07-22T08:30:42;3.80;;;2.80;;
51840;SDS011;37888;53.246;6.658;2023-07-22T08:33:09;4.57;;;3.00;;
51840;SDS011;37888;53.246;6.658;2023-07-22T08:35:37;3.50;;;2.67;;
51840;SDS011;37888;53.246;6.658;2023-07-22T08:38:03;3.55;;;2.80;;
51840;SDS011;37888;53.246;6.658;2023-07-22T08:40:33;4.95;;;3.13;;
51840;SDS011;37888;53.246;6.658;2023-07-22T08:43:05;3.90;;;3.22;;
51840;SDS011;37888;53.246;6.658;2023-07-22T08:45:32;4.70;;;3.35;;
51840;SDS011;37888;53.246;6.658;2023-07-22T09:02:58;3.78;;;2.67;;
51840;SDS011;37888;53.246;6.658;2023-07-22T09:05:33;3.67;;;2.72;;
51840;SDS011;37888;53.246;6.658;2023-07-22T09:11:24;3.55;;;2.70;;
51840;SDS011;37888;53.246;6.658;2023-07-22T09:13:50;3.45;;;2.28;;
51840;SDS011;37888;53.246;6.658;2023-07-22T09:16:18;3.22;;;2.20;;
51840;SDS011;37888;53.246;6.658;2023-07-22T09:18:44;3.28;;;1.85;;
51840;SDS011;37888;53.246;6.658;2023-07-22T09:21:10;4.28;;;2.00;;
51840;SDS011;37888;53.246;6.658;2023-07-22T09:23:37;3.33;;;1.95;;
51840;SDS011;37888;53.246;6.658;2023-07-22T09:26:10;2.30;;;1.73;;
51840;SDS011;37888;53.246;6.658;2023-07-22T09:31:20;3.75;;;1.95;;
51840;SDS011;37888;53.246;6.658;2023-07-22T09:33:47;3.63;;;2.00;;
51840;SDS011;37888;53.246;6.658;2023-07-22T09:36:15;2.75;;;1.60;;
51840;SDS011;37888;53.246;6.658;2023-07-22T09:42:27;2.60;;;1.50;;
51840;SDS011;37888;53.246;6.658;2023-07-22T09:44:54;3.88;;;1.60;;
51840;SDS011;37888;53.246;6.658;2023-07-22T09:49:46;5.18;;;3.00;;
51840;SDS011;37888;53.246;6.658;2023-07-22T09:52:14;6.50;;;2.95;;
51840;SDS011;37888;53.246;6.658;2023-07-22T09:54:46;4.68;;;3.58;;
51840;SDS011;37888;53.246;6.658;2023-07-22T09:57:14;4.90;;;4.13;;
51840;SDS011;37888;53.246;6.658;2023-07-22T09:59:40;5.38;;;4.18;;
51840;SDS011;37888;53.246;6.658;2023-07-22T10:02:06;5.93;;;4.03;;
51840;SDS011;37888;53.246;6.658;2023-07-22T10:04:36;5.65;;;3.75;;
51840;SDS011;37888;53.246;6.658;2023-07-22T10:07:05;4.78;;;4.18;;
51840;SDS011;37888;53.246;6.658;2023-07-22T10:09:33;5.10;;;3.83;;
51840;SDS011;37888;53.246;6.658;2023-07-22T10:12:04;7.07;;;4.45;;
51840;SDS011;37888;53.246;6.658;2023-07-22T10:14:40;5.38;;;3.60;;
51840;SDS011;37888;53.246;6.658;2023-07-22T10:17:19;5.88;;;3.85;;
51840;SDS011;37888;53.246;6.658;2023-07-22T10:27:21;2.63;;;2.28;;
51840;SDS011;37888;53.246;6.658;2023-07-22T10:29:48;2.92;;;2.35;;
51840;SDS011;37888;53.246;6.658;2023-07-22T10:32:14;3.67;;;2.40;;
51840;SDS011;37888;53.246;6.658;2023-07-22T10:34:44;5.15;;;3.22;;
51840;SDS011;37888;53.246;6.658;2023-07-22T10:37:09;13.93;;;5.90;;
51840;SDS011;37888;53.246;6.658;2023-07-22T10:39:48;5.78;;;3.47;;
51840;SDS011;37888;53.246;6.658;2023-07-22T10:47:02;4.20;;;3.60;;
51840;SDS011;37888;53.246;6.658;2023-07-22T10:56:19;4.28;;;3.35;;
51840;SDS011;37888;53.246;6.658;2023-07-22T11:02:25;3.63;;;2.95;;
51840;SDS011;37888;53.246;6.658;2023-07-22T11:05:04;3.65;;;2.88;;
51840;SDS011;37888;53.246;6.658;2023-07-22T11:18:48;3.67;;;2.72;;
51840;SDS011;37888;53.246;6.658;2023-07-22T11:21:24;4.45;;;2.63;;
51840;SDS011;37888;53.246;6.658;2023-07-22T13:45:35;5.97;;;5.13;;
51840;SDS011;37888;53.246;6.658;2023-07-22T13:48:31;5.97;;;5.38;;
51840;SDS011;37888;53.246;6.658;2023-07-22T13:51:07;5.57;;;4.88;;
51840;SDS011;37888;53.246;6.658;2023-07-22T13:53:33;5.68;;;4.82;;
51840;SDS011;37888;53.246;6.658;2023-07-22T13:55:59;5.30;;;4.80;;
51840;SDS011;37888;53.246;6.658;2023-07-22T13:58:50;5.47;;;4.97;;
51840;SDS011;37888;53.246;6.658;2023-07-22T14:04:34;5.25;;;4.75;;
51840;SDS011;37888;53.246;6.658;2023-07-22T14:07:10;6.03;;;5.20;;
51840;SDS011;37888;53.246;6.658;2023-07-22T14:09:47;6.22;;;5.63;;
51840;SDS011;37888;53.246;6.658;2023-07-22T14:12:49;5.45;;;4.95;;
51840;SDS011;37888;53.246;6.658;2023-07-22T14:15:26;6.25;;;5.13;;
51840;SDS011;37888;53.246;6.658;2023-07-22T14:17:55;6.10;;;4.80;;
51840;SDS011;37888;53.246;6.658;2023-07-22T14:20:30;5.50;;;4.60;;
51840;SDS011;37888;53.246;6.658;2023-07-22T14:23:17;5.30;;;4.20;;
51840;SDS011;37888;53.246;6.658;2023-07-22T14:25:43;5.25;;;4.75;;
51840;SDS011;37888;53.246;6.658;2023-07-22T14:31:48;5.55;;;4.63;;
51840;SDS011;37888;53.246;6.658;2023-07-22T14:41:01;5.93;;;4.35;;
51840;SDS011;37888;53.246;6.658;2023-07-22T14:43:28;4.68;;;4.28;;
51840;SDS011;37888;53.246;6.658;2023-07-22T14:45:54;5.38;;;3.83;;
51840;SDS011;37888;53.246;6.658;2023-07-22T14:48:20;5.35;;;4.25;;
51840;SDS011;37888;53.246;6.658;2023-07-22T14:50:49;4.70;;;4.30;;
51840;SDS011;37888;53.246;6.658;2023-07-22T14:53:15;4.90;;;4.00;;
51840;SDS011;37888;53.246;6.658;2023-07-22T14:55:43;5.03;;;4.45;;
51840;SDS011;37888;53.246;6.658;2023-07-22T14:58:14;5.18;;;4.10;;
51840;SDS011;37888;53.246;6.658;2023-07-22T15:00:57;5.03;;;4.50;;
51840;SDS011;37888;53.246;6.658;2023-07-22T15:03:32;5.00;;;4.50;;
51840;SDS011;37888;53.246;6.658;2023-07-22T15:06:01;5.57;;;4.53;;
51840;SDS011;37888;53.246;6.658;2023-07-22T15:08:30;6.72;;;5.07;;
51840;SDS011;37888;53.246;6.658;2023-07-22T15:11:36;7.70;;;4.78;;
51840;SDS011;37888;53.246;6.658;2023-07-22T15:22:19;5.93;;;4.45;;
51840;SDS011;37888;53.246;6.658;2023-07-22T15:24:50;4.95;;;4.15;;
51840;SDS011;37888;53.246;6.658;2023-07-22T15:27:21;6.53;;;4.78;;
51840;SDS011;37888;53.246;6.658;2023-07-22T15:30:05;7.60;;;4.50;;
51840;SDS011;37888;53.246;6.658;2023-07-22T15:33:08;6.90;;;4.05;;
51840;SDS011;37888;53.246;6.658;2023-07-22T15:36:03;4.80;;;3.00;;
51840;SDS011;37888;53.246;6.658;2023-07-22T15:38:39;4.53;;;2.80;;
51840;SDS011;37888;53.246;6.658;2023-07-22T15:41:44;3.80;;;2.63;;
51840;SDS011;37888;53.246;6.658;2023-07-22T15:44:13;6.22;;;2.65;;
51840;SDS011;37888;53.246;6.658;2023-07-22T15:46:47;4.95;;;2.53;;
51840;SDS011;37888;53.246;6.658;2023-07-22T15:49:16;3.85;;;2.55;;
51840;SDS011;37888;53.246;6.658;2023-07-22T15:52:06;2.42;;;2.22;;
51840;SDS011;37888;53.246;6.658;2023-07-22T15:54:39;3.38;;;2.60;;
51840;SDS011;37888;53.246;6.658;2023-07-22T15:57:05;4.82;;;2.42;;
51840;SDS011;37888;53.246;6.658;2023-07-22T15:59:31;4.32;;;2.75;;
51840;SDS011;37888;53.246;6.658;2023-07-22T16:02:01;4.35;;;2.53;;
51840;SDS011;37888;53.246;6.658;2023-07-22T16:04:31;3.57;;;2.43;;
51840;SDS011;37888;53.246;6.658;2023-07-22T16:07:08;4.38;;;2.88;;
51840;SDS011;37888;53.246;6.658;2023-07-22T16:09:37;5.40;;;2.97;;
51840;SDS011;37888;53.246;6.658;2023-07-22T16:12:03;5.78;;;2.40;;
51840;SDS011;37888;53.246;6.658;2023-07-22T16:14:31;3.05;;;2.40;;
51840;SDS011;37888;53.246;6.658;2023-07-22T16:19:49;5.93;;;2.60;;
51840;SDS011;37888;53.246;6.658;2023-07-22T16:58:46;5.65;;;2.50;;
51840;SDS011;37888;53.246;6.658;2023-07-22T17:01:14;4.35;;;2.40;;
51840;SDS011;37888;53.246;6.658;2023-07-22T17:03:46;5.55;;;2.50;;
51840;SDS011;37888;53.246;6.658;2023-07-22T17:09:34;4.63;;;2.38;;
51840;SDS011;37888;53.246;6.658;2023-07-22T17:12:03;4.50;;;2.92;;
51840;SDS011;37888;53.246;6.658;2023-07-22T17:14:30;4.07;;;2.53;;
51840;SDS011;37888;53.246;6.658;2023-07-22T17:17:08;3.65;;;2.60;;
51840;SDS011;37888;53.246;6.658;2023-07-22T17:22:34;4.18;;;2.30;;
51840;SDS011;37888;53.246;6.658;2023-07-22T17:25:00;5.45;;;2.88;;
51840;SDS011;37888;53.246;6.658;2023-07-22T17:27:29;4.10;;;2.38;;
51840;SDS011;37888;53.246;6.658;2023-07-22T17:33:34;3.83;;;2.43;;
51840;SDS011;37888;53.246;6.658;2023-07-22T17:36:14;3.30;;;2.22;;
51840;SDS011;37888;53.246;6.658;2023-07-22T17:38:40;4.50;;;2.30;;
51840;SDS011;37888;53.246;6.658;2023-07-22T17:41:09;3.50;;;2.10;;
51840;SDS011;37888;53.246;6.658;2023-07-22T17:43:35;2.80;;;2.25;;
51840;SDS011;37888;53.246;6.658;2023-07-22T17:46:04;3.25;;;2.35;;
51840;SDS011;37888;53.246;6.658;2023-07-22T17:48:30;3.97;;;2.50;;
51840;SDS011;37888;53.246;6.658;2023-07-22T17:50:56;3.42;;;2.50;;
51840;SDS011;37888;53.246;6.658;2023-07-22T17:53:21;4.75;;;2.45;;
51840;SDS011;37888;53.246;6.658;2023-07-22T17:55:47;2.40;;;2.00;;
51840;SDS011;37888;53.246;6.658;2023-07-22T17:58:13;5.25;;;2.40;;
51840;SDS011;37888;53.246;6.658;2023-07-22T18:00:39;4.00;;;2.30;;
51840;SDS011;37888;53.246;6.658;2023-07-22T18:03:05;4.32;;;2.63;;
51840;SDS011;37888;53.246;6.658;2023-07-22T18:05:31;4.28;;;2.33;;
51840;SDS011;37888;53.246;6.658;2023-07-22T18:07:57;5.63;;;2.30;;
51840;SDS011;37888;53.246;6.658;2023-07-22T18:10:22;2.95;;;2.42;;
51840;SDS011;37888;53.246;6.658;2023-07-22T18:12:48;4.72;;;2.90;;
51840;SDS011;37888;53.246;6.658;2023-07-22T18:15:14;3.40;;;2.38;;
51840;SDS011;37888;53.246;6.658;2023-07-22T18:17:40;4.88;;;2.67;;
51840;SDS011;37888;53.246;6.658;2023-07-22T18:20:06;4.57;;;2.85;;
51840;SDS011;37888;53.246;6.658;2023-07-22T18:22:35;5.60;;;2.88;;
51840;SDS011;37888;53.246;6.658;2023-07-22T18:25:01;5.15;;;2.88;;
51840;SDS011;37888;53.246;6.658;2023-07-22T18:27:33;4.45;;;2.72;;
51840;SDS011;37888;53.246;6.658;2023-07-22T18:30:14;4.93;;;2.83;;
51840;SDS011;37888;53.246;6.658;2023-07-22T18:32:40;5.88;;;2.45;;
51840;SDS011;37888;53.246;6.658;2023-07-22T18:38:51;6.20;;;2.72;;
51840;SDS011;37888;53.246;6.658;2023-07-22T18:41:20;3.97;;;2.70;;
51840;SDS011;37888;53.246;6.658;2023-07-22T18:43:47;5.43;;;3.05;;
51840;SDS011;37888;53.246;6.658;2023-07-22T18:46:15;5.55;;;2.90;;
51840;SDS011;37888;53.246;6.658;2023-07-22T18:48:45;5.63;;;2.88;;
51840;SDS011;37888;53.246;6.658;2023-07-22T18:51:13;3.33;;;2.37;;
51840;SDS011;37888;53.246;6.658;2023-07-22T18:53:40;3.85;;;2.35;;
51840;SDS011;37888;53.246;6.658;2023-07-22T19:04:17;4.90;;;2.58;;
51840;SDS011;37888;53.246;6.658;2023-07-22T19:06:46;3.30;;;2.72;;
51840;SDS011;37888;53.246;6.658;2023-07-22T19:09:12;3.85;;;2.58;;
51840;SDS011;37888;53.246;6.658;2023-07-22T19:19:06;4.30;;;2.92;;
51840;SDS011;37888;53.246;6.658;2023-07-22T19:25:56;6.68;;;2.92;;
51840;SDS011;37888;53.246;6.658;2023-07-22T19:28:23;6.77;;;3.87;;
51840;SDS011;37888;53.246;6.658;2023-07-22T19:30:53;6.53;;;3.40;;
51840;SDS011;37888;53.246;6.658;2023-07-22T19:33:20;4.78;;;3.25;;
51840;SDS011;37888;53.246;6.658;2023-07-22T19:36:02;5.07;;;3.38;;
51840;SDS011;37888;53.246;6.658;2023-07-22T19:38:30;5.65;;;3.35;;
51840;SDS011;37888;53.246;6.658;2023-07-22T19:41:06;4.35;;;3.25;;
51840;SDS011;37888;53.246;6.658;2023-07-22T19:43:40;4.95;;;3.47;;
51840;SDS011;37888;53.246;6.658;2023-07-22T19:46:44;4.63;;;3.30;;
51840;SDS011;37888;53.246;6.658;2023-07-22T19:49:10;6.03;;;3.70;;
51840;SDS011;37888;53.246;6.658;2023-07-22T19:51:40;5.90;;;3.70;;
51840;SDS011;37888;53.246;6.658;2023-07-22T19:54:06;4.65;;;4.10;;
51840;SDS011;37888;53.246;6.658;2023-07-22T19:56:37;8.05;;;4.00;;
51840;SDS011;37888;53.246;6.658;2023-07-22T20:02:18;7.33;;;4.17;;
51840;SDS011;37888;53.246;6.658;2023-07-22T20:08:22;6.00;;;4.07;;
51840;SDS011;37888;53.246;6.658;2023-07-22T20:11:02;4.57;;;4.18;;
51840;SDS011;37888;53.246;6.658;2023-07-22T20:13:57;6.38;;;4.10;;
51840;SDS011;37888;53.246;6.658;2023-07-22T20:16:39;6.43;;;3.95;;
51840;SDS011;37888;53.246;6.658;2023-07-22T20:19:17;5.65;;;3.33;;
51840;SDS011;37888;53.246;6.658;2023-07-22T20:21:57;5.40;;;3.30;;
51840;SDS011;37888;53.246;6.658;2023-07-22T20:28:27;5.28;;;2.70;;
51840;SDS011;37888;53.246;6.658;2023-07-22T20:31:19;5.93;;;3.08;;
51840;SDS011;37888;53.246;6.658;2023-07-22T20:34:10;3.88;;;2.67;;
51840;SDS011;37888;53.246;6.658;2023-07-22T20:37:03;4.75;;;2.80;;
51840;SDS011;37888;53.246;6.658;2023-07-22T20:42:23;6.20;;;3.47;;
51840;SDS011;37888;53.246;6.658;2023-07-22T20:47:34;5.47;;;3.17;;
51840;SDS011;37888;53.246;6.658;2023-07-22T20:50:09;7.63;;;4.05;;
51840;SDS011;37888;53.246;6.658;2023-07-22T20:52:49;5.00;;;3.80;;
51840;SDS011;37888;53.246;6.658;2023-07-22T20:55:25;4.40;;;3.45;;
51840;SDS011;37888;53.246;6.658;2023-07-22T20:57:51;5.35;;;3.75;;
51840;SDS011;37888;53.246;6.658;2023-07-22T21:00:23;7.55;;;3.60;;
51840;SDS011;37888;53.246;6.658;2023-07-22T21:02:58;4.50;;;3.60;;
51840;SDS011;37888;53.246;6.658;2023-07-22T21:05:27;3.85;;;3.42;;
51840;SDS011;37888;53.246;6.658;2023-07-22T21:08:18;6.18;;;3.42;;
51840;SDS011;37888;53.246;6.658;2023-07-22T21:10:52;6.57;;;3.08;;
51840;SDS011;37888;53.246;6.658;2023-07-22T21:13:18;5.93;;;3.22;;
51840;SDS011;37888;53.246;6.658;2023-07-22T21:15:44;7.28;;;3.63;;
51840;SDS011;37888;53.246;6.658;2023-07-22T21:18:10;4.07;;;3.03;;
51840;SDS011;37888;53.246;6.658;2023-07-22T21:20:36;4.55;;;2.90;;
51840;SDS011;37888;53.246;6.658;2023-07-22T21:23:02;4.40;;;2.75;;
51840;SDS011;37888;53.246;6.658;2023-07-22T21:25:31;3.95;;;2.55;;
51840;SDS011;37888;53.246;6.658;2023-07-22T21:27:57;6.97;;;2.42;;
51840;SDS011;37888;53.246;6.658;2023-07-22T21:30:23;5.50;;;2.47;;
51840;SDS011;37888;53.246;6.658;2023-07-22T21:32:49;3.47;;;2.03;;
51840;SDS011;37888;53.246;6.658;2023-07-22T21:35:15;4.97;;;2.20;;
51840;SDS011;37888;53.246;6.658;2023-07-22T21:37:43;3.70;;;1.83;;
51840;SDS011;37888;53.246;6.658;2023-07-22T21:40:09;5.57;;;2.22;;
51840;SDS011;37888;53.246;6.658;2023-07-22T21:42:35;4.05;;;1.98;;
51840;SDS011;37888;53.246;6.658;2023-07-22T21:45:01;4.05;;;2.10;;
51840;SDS011;37888;53.246;6.658;2023-07-22T21:47:30;4.78;;;2.10;;
51840;SDS011;37888;53.246;6.658;2023-07-22T21:49:56;3.35;;;2.22;;
51840;SDS011;37888;53.246;6.658;2023-07-22T21:52:24;3.25;;;2.10;;
51840;SDS011;37888;53.246;6.658;2023-07-22T21:54:50;6.07;;;2.55;;
51840;SDS011;37888;53.246;6.658;2023-07-22T21:57:16;4.38;;;2.95;;
51840;SDS011;37888;53.246;6.658;2023-07-22T21:59:42;5.70;;;2.95;;
51840;SDS011;37888;53.246;6.658;2023-07-22T22:02:08;6.75;;;3.58;;
51840;SDS011;37888;53.246;6.658;2023-07-22T22:04:34;5.32;;;2.92;;
51840;SDS011;37888;53.246;6.658;2023-07-22T22:06:59;6.38;;;3.47;;
51840;SDS011;37888;53.246;6.658;2023-07-22T22:09:25;4.95;;;3.78;;
51840;SDS011;37888;53.246;6.658;2023-07-22T22:12:01;4.97;;;4.18;;
51840;SDS011;37888;53.246;6.658;2023-07-22T22:14:27;4.80;;;4.22;;
51840;SDS011;37888;53.246;6.658;2023-07-22T22:16:53;5.57;;;4.68;;
51840;SDS011;37888;53.246;6.658;2023-07-22T22:19:20;5.00;;;4.50;;